Harpers Ferry, WV (25425)

9:46 AM EST on February 08, 2016 (GMT -0500)
Tasty Acres Farm | | Change Station
CLOSE
Current Station
Personal Weather Station
Location: Harpers Ferry, WV
Elevation: 435 ft
Nearby Weather Stations

Elev 435 ft 39.36 °N, 77.77 °W | Updated 1 minute ago

Clear
Clear
31.7 °F
Feels Like 32 °F
N
0.0
Wind Variable Wind from NNW
Gusts 3.0 mph

Today
High -- | Low -- °F
--% Chance of Precip.
Yesterday
High -- | Low -- °F
Precip. -- in
Pressure 29.81 in
Visibility 6.0 miles
Clouds Clear
Windchill 32 °F
Dew Point 27 °F
Humidity 82%
Rainfall 0.00 in
Snow Depth Not available.
7:11 AM 5:39 PM
Waning Crescent, 0% visible
METAR KMRB 081353Z 00000KT 6SM HZ CLR M02/M04 A2979 RMK AO2 SLP092 T10171044
Pressure 29.81 in
Visibility 6.0 miles
Clouds Clear
Windchill 32 °F
Dew Point 27 °F
Humidity 82%
Rainfall 0.00 in
Snow Depth Not available.
7:11 AM 5:39 PM
Waning Crescent, 0% visible
METAR KMRB 081353Z 00000KT 6SM HZ CLR M02/M04 A2979 RMK AO2 SLP092 T10171044

10-Day Weather Forecast

Almanac

Astronomy

Feb. 08, 2016 Rise Set
Actual Time
Civil Twilight
Nautical Twilight
Astronomical Twilight
Moon
Length of Visible Light
Length of Day
Tomorrow will be .
, % of the Moon is Illuminated

Today's Extremes

State Highs State Lows

Community

WunderPhotos

Upload Photos

1,891,437 photos uploaded!

WunderBlog® & News

Nearby

Air Quality

  Air Quality AQ Index Pollutant
Not available.

Snow Depth

Station Depth Elevation

Earthquake Activity

City Distance Mag. Time & Date
Minimum magnitude displayed is 2.5.

Coastal Water Temperatures

Place Temperature

Stations

Nearby Weather Stations

Station Location Temp. Windchill Dew Point Humidity Wind Precip. Elev Updated Type
                   

Watches & Warnings

There are currently no watches in effect.